sensor_id;sensor_type;location;lat;lon;timestamp;P1;durP1;ratioP1;P2;durP2;ratioP2
42124;SDS011;27787;44.594;11.046;2024-01-11T00:01:56;34.80;;;15.90;;
42124;SDS011;27787;44.594;11.046;2024-01-11T00:04:40;32.05;;;14.45;;
42124;SDS011;27787;44.594;11.046;2024-01-11T00:07:24;30.20;;;14.73;;
42124;SDS011;27787;44.594;11.046;2024-01-11T00:10:08;32.05;;;15.60;;
42124;SDS011;27787;44.594;11.046;2024-01-11T00:12:52;34.17;;;15.50;;
42124;SDS011;27787;44.594;11.046;2024-01-11T00:15:36;40.15;;;15.45;;
42124;SDS011;27787;44.594;11.046;2024-01-11T00:18:21;34.05;;;15.48;;
42124;SDS011;27787;44.594;11.046;2024-01-11T00:21:05;41.08;;;15.93;;
42124;SDS011;27787;44.594;11.046;2024-01-11T00:23:49;35.42;;;15.10;;
42124;SDS011;27787;44.594;11.046;2024-01-11T00:26:33;37.80;;;15.77;;
42124;SDS011;27787;44.594;11.046;2024-01-11T00:29:17;34.50;;;15.13;;
42124;SDS011;27787;44.594;11.046;2024-01-11T00:32:01;35.50;;;15.65;;
42124;SDS011;27787;44.594;11.046;2024-01-11T00:34:46;37.25;;;15.75;;
42124;SDS011;27787;44.594;11.046;2024-01-11T00:37:31;33.10;;;14.30;;
42124;SDS011;27787;44.594;11.046;2024-01-11T00:40:15;36.10;;;15.65;;
42124;SDS011;27787;44.594;11.046;2024-01-11T00:42:59;34.72;;;15.82;;
42124;SDS011;27787;44.594;11.046;2024-01-11T00:45:45;35.17;;;15.35;;
42124;SDS011;27787;44.594;11.046;2024-01-11T00:48:29;33.50;;;14.20;;
42124;SDS011;27787;44.594;11.046;2024-01-11T00:51:14;31.58;;;13.63;;
42124;SDS011;27787;44.594;11.046;2024-01-11T00:53:59;30.90;;;14.23;;
42124;SDS011;27787;44.594;11.046;2024-01-11T00:56:43;32.80;;;14.38;;
42124;SDS011;27787;44.594;11.046;2024-01-11T00:59:27;31.95;;;14.48;;
42124;SDS011;27787;44.594;11.046;2024-01-11T01:02:11;35.10;;;13.50;;
42124;SDS011;27787;44.594;11.046;2024-01-11T01:04:55;37.53;;;13.88;;
42124;SDS011;27787;44.594;11.046;2024-01-11T01:07:40;33.85;;;14.02;;
42124;SDS011;27787;44.594;11.046;2024-01-11T01:10:24;33.38;;;13.45;;
42124;SDS011;27787;44.594;11.046;2024-01-11T01:13:08;40.00;;;15.20;;
42124;SDS011;27787;44.594;11.046;2024-01-11T01:15:52;29.80;;;13.38;;
42124;SDS011;27787;44.594;11.046;2024-01-11T01:18:36;32.58;;;14.70;;
42124;SDS011;27787;44.594;11.046;2024-01-11T01:21:20;37.92;;;15.07;;
42124;SDS011;27787;44.594;11.046;2024-01-11T01:24:04;30.48;;;13.57;;
42124;SDS011;27787;44.594;11.046;2024-01-11T01:26:48;31.85;;;12.88;;
42124;SDS011;27787;44.594;11.046;2024-01-11T01:29:32;26.52;;;13.02;;
42124;SDS011;27787;44.594;11.046;2024-01-11T01:32:16;34.45;;;14.45;;
42124;SDS011;27787;44.594;11.046;2024-01-11T01:35:01;31.35;;;12.98;;
42124;SDS011;27787;44.594;11.046;2024-01-11T01:37:45;32.67;;;13.70;;
42124;SDS011;27787;44.594;11.046;2024-01-11T01:40:30;30.50;;;13.73;;
42124;SDS011;27787;44.594;11.046;2024-01-11T01:45:59;32.47;;;13.13;;
42124;SDS011;27787;44.594;11.046;2024-01-11T01:48:44;34.90;;;13.13;;
42124;SDS011;27787;44.594;11.046;2024-01-11T01:51:29;34.88;;;13.40;;
42124;SDS011;27787;44.594;11.046;2024-01-11T01:54:15;29.33;;;13.13;;
42124;SDS011;27787;44.594;11.046;2024-01-11T01:57:00;33.47;;;13.48;;
42124;SDS011;27787;44.594;11.046;2024-01-11T01:59:48;28.77;;;12.13;;
42124;SDS011;27787;44.594;11.046;2024-01-11T02:02:35;28.08;;;13.23;;
42124;SDS011;27787;44.594;11.046;2024-01-11T02:05:21;31.48;;;13.02;;
42124;SDS011;27787;44.594;11.046;2024-01-11T02:08:06;26.00;;;13.52;;
42124;SDS011;27787;44.594;11.046;2024-01-11T02:10:52;27.13;;;12.32;;
42124;SDS011;27787;44.594;11.046;2024-01-11T02:13:37;28.35;;;12.68;;
42124;SDS011;27787;44.594;11.046;2024-01-11T02:16:21;30.63;;;12.55;;
42124;SDS011;27787;44.594;11.046;2024-01-11T02:19:05;28.92;;;12.35;;
42124;SDS011;27787;44.594;11.046;2024-01-11T02:21:51;36.50;;;14.77;;
42124;SDS011;27787;44.594;11.046;2024-01-11T02:24:38;35.90;;;13.27;;
42124;SDS011;27787;44.594;11.046;2024-01-11T02:27:22;26.10;;;12.65;;
42124;SDS011;27787;44.594;11.046;2024-01-11T02:30:07;29.33;;;12.98;;
42124;SDS011;27787;44.594;11.046;2024-01-11T02:32:51;33.58;;;12.90;;
42124;SDS011;27787;44.594;11.046;2024-01-11T02:35:37;27.95;;;12.85;;
42124;SDS011;27787;44.594;11.046;2024-01-11T02:41:07;28.73;;;11.98;;
42124;SDS011;27787;44.594;11.046;2024-01-11T02:43:51;28.95;;;11.00;;
42124;SDS011;27787;44.594;11.046;2024-01-11T02:46:37;25.33;;;11.85;;
42124;SDS011;27787;44.594;11.046;2024-01-11T02:49:21;25.42;;;11.63;;
42124;SDS011;27787;44.594;11.046;2024-01-11T02:52:06;28.52;;;12.38;;
42124;SDS011;27787;44.594;11.046;2024-01-11T02:54:50;25.98;;;11.35;;
42124;SDS011;27787;44.594;11.046;2024-01-11T02:57:34;38.03;;;12.50;;
42124;SDS011;27787;44.594;11.046;2024-01-11T03:00:18;31.13;;;12.30;;
42124;SDS011;27787;44.594;11.046;2024-01-11T03:03:03;22.25;;;12.85;;
42124;SDS011;27787;44.594;11.046;2024-01-11T03:05:47;26.40;;;12.65;;
42124;SDS011;27787;44.594;11.046;2024-01-11T03:08:31;28.70;;;12.52;;
42124;SDS011;27787;44.594;11.046;2024-01-11T03:11:16;31.45;;;11.80;;
42124;SDS011;27787;44.594;11.046;2024-01-11T03:14:00;35.85;;;11.57;;
42124;SDS011;27787;44.594;11.046;2024-01-11T03:16:45;26.10;;;12.50;;
42124;SDS011;27787;44.594;11.046;2024-01-11T03:19:29;30.40;;;11.80;;
42124;SDS011;27787;44.594;11.046;2024-01-11T03:22:13;26.15;;;11.23;;
42124;SDS011;27787;44.594;11.046;2024-01-11T03:24:57;29.63;;;12.02;;
42124;SDS011;27787;44.594;11.046;2024-01-11T03:27:41;26.88;;;11.48;;
42124;SDS011;27787;44.594;11.046;2024-01-11T03:30:25;27.58;;;11.32;;
42124;SDS011;27787;44.594;11.046;2024-01-11T03:33:10;29.75;;;12.32;;
42124;SDS011;27787;44.594;11.046;2024-01-11T03:35:54;25.70;;;11.18;;
42124;SDS011;27787;44.594;11.046;2024-01-11T03:38:38;29.05;;;11.40;;
42124;SDS011;27787;44.594;11.046;2024-01-11T03:41:22;25.42;;;11.13;;
42124;SDS011;27787;44.594;11.046;2024-01-11T03:44:06;25.88;;;11.85;;
42124;SDS011;27787;44.594;11.046;2024-01-11T03:46:50;26.90;;;11.85;;
42124;SDS011;27787;44.594;11.046;2024-01-11T03:49:35;28.33;;;11.38;;
42124;SDS011;27787;44.594;11.046;2024-01-11T03:52:19;24.65;;;11.15;;
42124;SDS011;27787;44.594;11.046;2024-01-11T03:55:04;25.27;;;11.68;;
42124;SDS011;27787;44.594;11.046;2024-01-11T03:57:48;31.45;;;11.77;;
42124;SDS011;27787;44.594;11.046;2024-01-11T04:00:32;28.95;;;12.40;;
42124;SDS011;27787;44.594;11.046;2024-01-11T04:03:17;26.55;;;11.95;;
42124;SDS011;27787;44.594;11.046;2024-01-11T04:06:00;24.08;;;11.85;;
42124;SDS011;27787;44.594;11.046;2024-01-11T04:08:45;21.83;;;11.02;;
42124;SDS011;27787;44.594;11.046;2024-01-11T04:11:30;28.38;;;11.90;;
42124;SDS011;27787;44.594;11.046;2024-01-11T04:14:14;31.30;;;11.15;;
42124;SDS011;27787;44.594;11.046;2024-01-11T04:16:58;25.67;;;11.20;;
42124;SDS011;27787;44.594;11.046;2024-01-11T04:19:42;24.73;;;11.55;;
42124;SDS011;27787;44.594;11.046;2024-01-11T04:22:27;25.65;;;10.95;;
42124;SDS011;27787;44.594;11.046;2024-01-11T04:25:12;26.30;;;12.10;;
42124;SDS011;27787;44.594;11.046;2024-01-11T04:27:56;23.45;;;11.70;;
42124;SDS011;27787;44.594;11.046;2024-01-11T04:30:40;24.20;;;11.68;;
42124;SDS011;27787;44.594;11.046;2024-01-11T04:33:24;32.10;;;11.65;;
42124;SDS011;27787;44.594;11.046;2024-01-11T04:36:09;25.60;;;11.05;;
42124;SDS011;27787;44.594;11.046;2024-01-11T04:38:53;26.77;;;11.15;;
42124;SDS011;27787;44.594;11.046;2024-01-11T04:41:38;26.30;;;11.40;;
42124;SDS011;27787;44.594;11.046;2024-01-11T04:44:22;25.20;;;10.60;;
42124;SDS011;27787;44.594;11.046;2024-01-11T04:47:06;23.52;;;10.27;;
42124;SDS011;27787;44.594;11.046;2024-01-11T04:52:36;22.73;;;10.95;;
42124;SDS011;27787;44.594;11.046;2024-01-11T04:55:20;24.23;;;11.07;;
42124;SDS011;27787;44.594;11.046;2024-01-11T04:58:04;23.73;;;10.80;;
42124;SDS011;27787;44.594;11.046;2024-01-11T05:00:48;21.50;;;10.02;;
42124;SDS011;27787;44.594;11.046;2024-01-11T05:03:33;23.53;;;10.63;;
42124;SDS011;27787;44.594;11.046;2024-01-11T05:06:18;25.60;;;10.15;;
42124;SDS011;27787;44.594;11.046;2024-01-11T05:09:04;26.25;;;10.65;;
42124;SDS011;27787;44.594;11.046;2024-01-11T05:11:48;25.45;;;10.80;;
42124;SDS011;27787;44.594;11.046;2024-01-11T05:14:32;21.83;;;10.27;;
42124;SDS011;27787;44.594;11.046;2024-01-11T05:17:17;22.58;;;9.75;;
42124;SDS011;27787;44.594;11.046;2024-01-11T05:20:01;28.45;;;12.23;;
42124;SDS011;27787;44.594;11.046;2024-01-11T05:22:45;24.05;;;10.43;;
42124;SDS011;27787;44.594;11.046;2024-01-11T05:25:30;24.38;;;10.63;;
42124;SDS011;27787;44.594;11.046;2024-01-11T05:28:17;23.75;;;10.18;;
42124;SDS011;27787;44.594;11.046;2024-01-11T05:31:01;24.73;;;9.95;;
42124;SDS011;27787;44.594;11.046;2024-01-11T05:33:45;27.25;;;10.50;;
42124;SDS011;27787;44.594;11.046;2024-01-11T05:36:30;24.48;;;10.70;;
42124;SDS011;27787;44.594;11.046;2024-01-11T05:39:14;27.08;;;10.95;;
42124;SDS011;27787;44.594;11.046;2024-01-11T05:41:58;21.83;;;10.27;;
42124;SDS011;27787;44.594;11.046;2024-01-11T05:44:42;21.10;;;9.60;;
42124;SDS011;27787;44.594;11.046;2024-01-11T05:47:26;21.63;;;9.95;;
42124;SDS011;27787;44.594;11.046;2024-01-11T05:50:10;26.17;;;10.93;;
42124;SDS011;27787;44.594;11.046;2024-01-11T05:52:55;23.50;;;10.40;;
42124;SDS011;27787;44.594;11.046;2024-01-11T05:55:40;26.70;;;11.10;;
42124;SDS011;27787;44.594;11.046;2024-01-11T05:58:24;21.60;;;10.43;;
42124;SDS011;27787;44.594;11.046;2024-01-11T06:01:08;28.63;;;11.15;;
42124;SDS011;27787;44.594;11.046;2024-01-11T06:03:53;26.10;;;11.70;;
42124;SDS011;27787;44.594;11.046;2024-01-11T06:06:37;27.60;;;10.88;;
42124;SDS011;27787;44.594;11.046;2024-01-11T06:09:21;25.05;;;11.90;;
42124;SDS011;27787;44.594;11.046;2024-01-11T06:12:05;22.08;;;10.73;;
42124;SDS011;27787;44.594;11.046;2024-01-11T06:14:49;25.77;;;11.95;;
42124;SDS011;27787;44.594;11.046;2024-01-11T06:17:33;25.65;;;11.05;;
42124;SDS011;27787;44.594;11.046;2024-01-11T06:20:17;25.70;;;10.75;;
42124;SDS011;27787;44.594;11.046;2024-01-11T06:23:01;28.17;;;11.48;;
42124;SDS011;27787;44.594;11.046;2024-01-11T06:25:44;25.40;;;11.45;;
42124;SDS011;27787;44.594;11.046;2024-01-11T06:28:30;25.85;;;10.70;;
42124;SDS011;27787;44.594;11.046;2024-01-11T06:31:14;23.88;;;10.70;;
42124;SDS011;27787;44.594;11.046;2024-01-11T06:33:58;23.58;;;10.48;;
42124;SDS011;27787;44.594;11.046;2024-01-11T06:36:42;28.05;;;11.50;;
42124;SDS011;27787;44.594;11.046;2024-01-11T06:39:26;24.08;;;10.80;;
42124;SDS011;27787;44.594;11.046;2024-01-11T06:42:10;20.48;;;10.25;;
42124;SDS011;27787;44.594;11.046;2024-01-11T06:44:54;26.63;;;11.52;;
42124;SDS011;27787;44.594;11.046;2024-01-11T06:47:38;24.48;;;11.60;;
42124;SDS011;27787;44.594;11.046;2024-01-11T06:50:22;30.55;;;12.60;;
42124;SDS011;27787;44.594;11.046;2024-01-11T06:53:06;24.13;;;12.13;;
42124;SDS011;27787;44.594;11.046;2024-01-11T06:55:50;22.88;;;10.75;;
42124;SDS011;27787;44.594;11.046;2024-01-11T06:58:36;28.00;;;11.50;;
42124;SDS011;27787;44.594;11.046;2024-01-11T07:01:20;26.33;;;12.57;;
42124;SDS011;27787;44.594;11.046;2024-01-11T07:04:04;24.85;;;11.10;;
42124;SDS011;27787;44.594;11.046;2024-01-11T07:06:48;26.50;;;10.77;;
42124;SDS011;27787;44.594;11.046;2024-01-11T07:09:32;27.77;;;12.52;;
42124;SDS011;27787;44.594;11.046;2024-01-11T07:12:16;27.52;;;12.40;;
42124;SDS011;27787;44.594;11.046;2024-01-11T07:15:01;32.85;;;12.02;;
42124;SDS011;27787;44.594;11.046;2024-01-11T07:17:45;35.30;;;12.48;;
42124;SDS011;27787;44.594;11.046;2024-01-11T07:20:29;23.10;;;11.02;;
42124;SDS011;27787;44.594;11.046;2024-01-11T07:23:13;25.85;;;11.38;;
42124;SDS011;27787;44.594;11.046;2024-01-11T07:25:58;25.30;;;11.55;;
42124;SDS011;27787;44.594;11.046;2024-01-11T07:28:42;26.42;;;10.70;;
42124;SDS011;27787;44.594;11.046;2024-01-11T07:31:26;28.58;;;12.38;;
42124;SDS011;27787;44.594;11.046;2024-01-11T07:34:11;30.08;;;11.57;;
42124;SDS011;27787;44.594;11.046;2024-01-11T07:36:55;27.40;;;11.60;;
42124;SDS011;27787;44.594;11.046;2024-01-11T07:39:40;25.48;;;12.15;;
42124;SDS011;27787;44.594;11.046;2024-01-11T07:42:24;28.58;;;11.27;;
42124;SDS011;27787;44.594;11.046;2024-01-11T07:45:09;34.85;;;12.38;;
42124;SDS011;27787;44.594;11.046;2024-01-11T07:47:54;25.40;;;11.63;;
42124;SDS011;27787;44.594;11.046;2024-01-11T07:50:37;28.80;;;12.20;;
42124;SDS011;27787;44.594;11.046;2024-01-11T07:53:22;27.90;;;11.65;;
42124;SDS011;27787;44.594;11.046;2024-01-11T07:56:07;29.85;;;11.38;;
42124;SDS011;27787;44.594;11.046;2024-01-11T07:58:51;30.05;;;12.85;;
42124;SDS011;27787;44.594;11.046;2024-01-11T08:01:35;23.88;;;10.80;;
42124;SDS011;27787;44.594;11.046;2024-01-11T08:04:20;31.42;;;13.23;;
42124;SDS011;27787;44.594;11.046;2024-01-11T08:07:04;28.88;;;12.27;;
42124;SDS011;27787;44.594;11.046;2024-01-11T08:09:49;25.08;;;11.57;;
42124;SDS011;27787;44.594;11.046;2024-01-11T08:12:33;27.95;;;12.93;;
42124;SDS011;27787;44.594;11.046;2024-01-11T08:15:17;29.40;;;11.18;;
42124;SDS011;27787;44.594;11.046;2024-01-11T08:18:02;29.90;;;11.77;;
42124;SDS011;27787;44.594;11.046;2024-01-11T08:20:46;29.52;;;11.95;;
42124;SDS011;27787;44.594;11.046;2024-01-11T08:23:30;30.15;;;12.10;;
42124;SDS011;27787;44.594;11.046;2024-01-11T08:26:15;28.67;;;11.45;;
42124;SDS011;27787;44.594;11.046;2024-01-11T08:29:02;26.67;;;11.05;;
42124;SDS011;27787;44.594;11.046;2024-01-11T08:34:33;34.53;;;11.30;;
42124;SDS011;27787;44.594;11.046;2024-01-11T08:37:17;27.30;;;11.98;;
42124;SDS011;27787;44.594;11.046;2024-01-11T08:40:01;29.33;;;12.00;;
42124;SDS011;27787;44.594;11.046;2024-01-11T08:42:48;25.63;;;11.95;;
42124;SDS011;27787;44.594;11.046;2024-01-11T08:45:32;31.17;;;12.60;;
42124;SDS011;27787;44.594;11.046;2024-01-11T08:48:16;25.55;;;11.45;;
42124;SDS011;27787;44.594;11.046;2024-01-11T08:51:01;28.55;;;12.82;;
42124;SDS011;27787;44.594;11.046;2024-01-11T08:53:45;32.15;;;12.93;;
42124;SDS011;27787;44.594;11.046;2024-01-11T08:56:30;26.40;;;10.70;;
42124;SDS011;27787;44.594;11.046;2024-01-11T08:59:14;27.40;;;11.25;;
42124;SDS011;27787;44.594;11.046;2024-01-11T09:01:58;25.33;;;11.13;;
42124;SDS011;27787;44.594;11.046;2024-01-11T09:04:42;27.92;;;11.73;;
42124;SDS011;27787;44.594;11.046;2024-01-11T09:07:26;28.08;;;12.85;;
42124;SDS011;27787;44.594;11.046;2024-01-11T09:10:10;27.25;;;11.80;;
42124;SDS011;27787;44.594;11.046;2024-01-11T09:12:57;27.45;;;12.30;;
42124;SDS011;27787;44.594;11.046;2024-01-11T09:15:41;27.95;;;13.25;;
42124;SDS011;27787;44.594;11.046;2024-01-11T09:18:26;28.20;;;13.18;;
42124;SDS011;27787;44.594;11.046;2024-01-11T09:21:11;33.03;;;13.48;;
42124;SDS011;27787;44.594;11.046;2024-01-11T09:23:56;33.65;;;12.45;;
42124;SDS011;27787;44.594;11.046;2024-01-11T09:26:40;32.40;;;13.23;;
42124;SDS011;27787;44.594;11.046;2024-01-11T09:29:25;26.45;;;12.07;;
42124;SDS011;27787;44.594;11.046;2024-01-11T09:32:10;32.05;;;13.00;;
42124;SDS011;27787;44.594;11.046;2024-01-11T09:34:55;31.08;;;13.60;;
42124;SDS011;27787;44.594;11.046;2024-01-11T09:37:39;29.60;;;12.43;;
42124;SDS011;27787;44.594;11.046;2024-01-11T09:40:24;30.73;;;12.00;;
42124;SDS011;27787;44.594;11.046;2024-01-11T09:43:08;26.52;;;12.23;;
42124;SDS011;27787;44.594;11.046;2024-01-11T09:45:53;26.15;;;12.02;;
42124;SDS011;27787;44.594;11.046;2024-01-11T09:48:40;28.65;;;13.10;;
42124;SDS011;27787;44.594;11.046;2024-01-11T09:51:28;29.10;;;12.77;;
42124;SDS011;27787;44.594;11.046;2024-01-11T09:54:13;29.42;;;12.88;;
42124;SDS011;27787;44.594;11.046;2024-01-11T09:56:58;26.70;;;11.70;;
42124;SDS011;27787;44.594;11.046;2024-01-11T09:59:43;34.03;;;12.77;;
42124;SDS011;27787;44.594;11.046;2024-01-11T10:02:27;29.20;;;12.05;;
42124;SDS011;27787;44.594;11.046;2024-01-11T10:05:12;25.23;;;11.45;;
42124;SDS011;27787;44.594;11.046;2024-01-11T10:07:57;30.55;;;12.55;;
42124;SDS011;27787;44.594;11.046;2024-01-11T10:10:41;25.65;;;11.90;;
42124;SDS011;27787;44.594;11.046;2024-01-11T10:13:27;30.63;;;11.00;;
42124;SDS011;27787;44.594;11.046;2024-01-11T10:16:15;25.20;;;10.98;;
42124;SDS011;27787;44.594;11.046;2024-01-11T10:18:59;23.33;;;11.75;;
42124;SDS011;27787;44.594;11.046;2024-01-11T10:21:43;32.00;;;11.05;;
42124;SDS011;27787;44.594;11.046;2024-01-11T10:24:27;23.55;;;11.50;;
42124;SDS011;27787;44.594;11.046;2024-01-11T10:27:12;28.17;;;11.43;;
42124;SDS011;27787;44.594;11.046;2024-01-11T10:29:56;26.60;;;11.77;;
42124;SDS011;27787;44.594;11.046;2024-01-11T10:32:40;21.88;;;10.60;;
42124;SDS011;27787;44.594;11.046;2024-01-11T10:35:24;28.60;;;11.70;;
42124;SDS011;27787;44.594;11.046;2024-01-11T10:38:09;26.65;;;11.88;;
42124;SDS011;27787;44.594;11.046;2024-01-11T10:40:54;28.27;;;11.90;;
42124;SDS011;27787;44.594;11.046;2024-01-11T10:43:39;28.85;;;12.27;;
42124;SDS011;27787;44.594;11.046;2024-01-11T10:46:25;24.35;;;11.38;;
42124;SDS011;27787;44.594;11.046;2024-01-11T10:49:10;26.70;;;11.30;;
42124;SDS011;27787;44.594;11.046;2024-01-11T10:51:59;23.73;;;11.02;;
42124;SDS011;27787;44.594;11.046;2024-01-11T10:54:45;25.75;;;11.25;;
42124;SDS011;27787;44.594;11.046;2024-01-11T10:57:30;26.85;;;11.32;;
42124;SDS011;27787;44.594;11.046;2024-01-11T11:00:16;24.70;;;10.70;;
42124;SDS011;27787;44.594;11.046;2024-01-11T11:03:02;27.45;;;11.55;;
42124;SDS011;27787;44.594;11.046;2024-01-11T11:05:48;23.38;;;11.13;;
42124;SDS011;27787;44.594;11.046;2024-01-11T11:08:36;22.13;;;9.70;;
42124;SDS011;27787;44.594;11.046;2024-01-11T11:11:22;30.52;;;10.35;;
42124;SDS011;27787;44.594;11.046;2024-01-11T11:14:07;27.65;;;11.35;;
42124;SDS011;27787;44.594;11.046;2024-01-11T11:16:54;21.85;;;9.57;;
42124;SDS011;27787;44.594;11.046;2024-01-11T11:19:38;25.77;;;10.77;;
42124;SDS011;27787;44.594;11.046;2024-01-11T11:22:22;22.58;;;10.82;;
42124;SDS011;27787;44.594;11.046;2024-01-11T11:25:11;23.52;;;10.55;;
42124;SDS011;27787;44.594;11.046;2024-01-11T11:28:07;22.05;;;10.05;;
42124;SDS011;27787;44.594;11.046;2024-01-11T11:30:52;25.05;;;10.02;;
42124;SDS011;27787;44.594;11.046;2024-01-11T11:33:36;21.98;;;10.25;;
42124;SDS011;27787;44.594;11.046;2024-01-11T11:36:20;24.00;;;10.27;;
42124;SDS011;27787;44.594;11.046;2024-01-11T11:39:13;29.40;;;11.32;;
42124;SDS011;27787;44.594;11.046;2024-01-11T11:41:57;22.92;;;10.73;;
42124;SDS011;27787;44.594;11.046;2024-01-11T11:44:50;22.05;;;9.98;;
42124;SDS011;27787;44.594;11.046;2024-01-11T11:47:35;22.50;;;10.32;;
42124;SDS011;27787;44.594;11.046;2024-01-11T11:50:23;23.83;;;11.30;;
42124;SDS011;27787;44.594;11.046;2024-01-11T11:53:07;19.15;;;9.23;;
42124;SDS011;27787;44.594;11.046;2024-01-11T11:55:54;26.23;;;11.23;;
42124;SDS011;27787;44.594;11.046;2024-01-11T11:58:39;22.15;;;10.27;;
42124;SDS011;27787;44.594;11.046;2024-01-11T12:01:23;21.33;;;9.35;;
42124;SDS011;27787;44.594;11.046;2024-01-11T12:04:08;22.30;;;10.18;;
42124;SDS011;27787;44.594;11.046;2024-01-11T12:06:52;19.58;;;9.18;;
42124;SDS011;27787;44.594;11.046;2024-01-11T12:09:36;21.98;;;9.50;;
42124;SDS011;27787;44.594;11.046;2024-01-11T12:12:21;22.92;;;9.65;;
42124;SDS011;27787;44.594;11.046;2024-01-11T12:15:05;23.45;;;9.38;;
42124;SDS011;27787;44.594;11.046;2024-01-11T12:17:50;20.73;;;9.43;;
42124;SDS011;27787;44.594;11.046;2024-01-11T12:20:42;20.67;;;9.18;;
42124;SDS011;27787;44.594;11.046;2024-01-11T12:23:27;26.75;;;9.75;;
42124;SDS011;27787;44.594;11.046;2024-01-11T12:26:13;21.85;;;9.85;;
42124;SDS011;27787;44.594;11.046;2024-01-11T12:28:58;19.75;;;9.68;;
42124;SDS011;27787;44.594;11.046;2024-01-11T12:31:43;20.10;;;8.82;;
42124;SDS011;27787;44.594;11.046;2024-01-11T12:34:27;20.58;;;8.93;;
42124;SDS011;27787;44.594;11.046;2024-01-11T12:37:12;21.53;;;8.77;;
42124;SDS011;27787;44.594;11.046;2024-01-11T12:39:57;16.80;;;7.53;;
42124;SDS011;27787;44.594;11.046;2024-01-11T12:42:43;21.27;;;9.60;;
42124;SDS011;27787;44.594;11.046;2024-01-11T12:45:27;20.38;;;8.90;;
42124;SDS011;27787;44.594;11.046;2024-01-11T12:48:12;21.38;;;8.50;;
42124;SDS011;27787;44.594;11.046;2024-01-11T12:50:58;22.95;;;9.20;;
42124;SDS011;27787;44.594;11.046;2024-01-11T12:53:45;20.27;;;8.68;;
42124;SDS011;27787;44.594;11.046;2024-01-11T12:56:30;17.48;;;8.00;;
42124;SDS011;27787;44.594;11.046;2024-01-11T12:59:14;21.13;;;8.52;;
42124;SDS011;27787;44.594;11.046;2024-01-11T13:01:59;17.13;;;8.30;;
42124;SDS011;27787;44.594;11.046;2024-01-11T13:04:44;19.70;;;7.88;;
42124;SDS011;27787;44.594;11.046;2024-01-11T13:10:14;21.35;;;7.47;;
42124;SDS011;27787;44.594;11.046;2024-01-11T13:12:58;17.13;;;8.15;;
42124;SDS011;27787;44.594;11.046;2024-01-11T13:15:44;23.70;;;9.00;;
42124;SDS011;27787;44.594;11.046;2024-01-11T13:18:28;20.30;;;9.10;;
42124;SDS011;27787;44.594;11.046;2024-01-11T13:21:12;18.80;;;9.20;;
42124;SDS011;27787;44.594;11.046;2024-01-11T13:23:56;15.48;;;8.13;;
42124;SDS011;27787;44.594;11.046;2024-01-11T13:26:41;21.90;;;7.75;;
42124;SDS011;27787;44.594;11.046;2024-01-11T13:29:25;16.17;;;8.25;;
42124;SDS011;27787;44.594;11.046;2024-01-11T13:32:08;15.82;;;8.38;;
42124;SDS011;27787;44.594;11.046;2024-01-11T13:34:54;20.05;;;9.07;;
42124;SDS011;27787;44.594;11.046;2024-01-11T13:37:38;19.60;;;8.90;;
42124;SDS011;27787;44.594;11.046;2024-01-11T13:40:22;18.08;;;9.00;;
42124;SDS011;27787;44.594;11.046;2024-01-11T13:43:06;27.30;;;9.98;;
42124;SDS011;27787;44.594;11.046;2024-01-11T13:45:50;23.48;;;10.32;;
42124;SDS011;27787;44.594;11.046;2024-01-11T13:48:35;23.40;;;10.85;;
42124;SDS011;27787;44.594;11.046;2024-01-11T13:51:19;17.05;;;8.45;;
42124;SDS011;27787;44.594;11.046;2024-01-11T13:54:03;25.52;;;10.35;;
42124;SDS011;27787;44.594;11.046;2024-01-11T13:56:47;24.38;;;10.60;;
42124;SDS011;27787;44.594;11.046;2024-01-11T13:59:32;20.48;;;10.02;;
42124;SDS011;27787;44.594;11.046;2024-01-11T14:02:17;24.83;;;11.25;;
42124;SDS011;27787;44.594;11.046;2024-01-11T14:05:01;20.75;;;10.88;;
42124;SDS011;27787;44.594;11.046;2024-01-11T14:07:47;18.73;;;10.05;;
42124;SDS011;27787;44.594;11.046;2024-01-11T14:10:32;21.10;;;9.98;;
42124;SDS011;27787;44.594;11.046;2024-01-11T14:13:16;29.10;;;11.47;;
42124;SDS011;27787;44.594;11.046;2024-01-11T14:16:01;23.40;;;11.80;;
42124;SDS011;27787;44.594;11.046;2024-01-11T14:18:45;24.48;;;11.45;;
42124;SDS011;27787;44.594;11.046;2024-01-11T14:21:29;23.52;;;11.27;;
42124;SDS011;27787;44.594;11.046;2024-01-11T14:24:13;23.30;;;10.52;;
42124;SDS011;27787;44.594;11.046;2024-01-11T14:26:57;27.17;;;11.23;;
42124;SDS011;27787;44.594;11.046;2024-01-11T14:29:41;20.98;;;10.18;;
42124;SDS011;27787;44.594;11.046;2024-01-11T14:32:25;26.35;;;12.23;;
42124;SDS011;27787;44.594;11.046;2024-01-11T14:35:11;26.40;;;10.65;;
42124;SDS011;27787;44.594;11.046;2024-01-11T14:37:55;27.40;;;11.35;;
42124;SDS011;27787;44.594;11.046;2024-01-11T14:40:39;24.13;;;11.05;;
42124;SDS011;27787;44.594;11.046;2024-01-11T14:46:09;25.10;;;11.20;;
42124;SDS011;27787;44.594;11.046;2024-01-11T14:48:54;24.33;;;11.68;;
42124;SDS011;27787;44.594;11.046;2024-01-11T14:51:39;27.50;;;12.32;;
42124;SDS011;27787;44.594;11.046;2024-01-11T14:54:24;24.90;;;12.17;;
42124;SDS011;27787;44.594;11.046;2024-01-11T14:57:08;24.65;;;12.05;;
42124;SDS011;27787;44.594;11.046;2024-01-11T14:59:52;27.00;;;12.85;;
42124;SDS011;27787;44.594;11.046;2024-01-11T15:02:36;42.95;;;13.13;;
42124;SDS011;27787;44.594;11.046;2024-01-11T15:05:21;26.70;;;13.15;;
42124;SDS011;27787;44.594;11.046;2024-01-11T15:08:05;30.52;;;14.63;;
42124;SDS011;27787;44.594;11.046;2024-01-11T15:10:49;32.70;;;13.77;;
42124;SDS011;27787;44.594;11.046;2024-01-11T15:13:33;29.33;;;12.80;;
42124;SDS011;27787;44.594;11.046;2024-01-11T15:16:17;24.27;;;11.20;;
42124;SDS011;27787;44.594;11.046;2024-01-11T15:19:01;28.65;;;12.57;;
42124;SDS011;27787;44.594;11.046;2024-01-11T15:21:45;31.42;;;12.85;;
42124;SDS011;27787;44.594;11.046;2024-01-11T15:24:29;25.58;;;12.25;;
42124;SDS011;27787;44.594;11.046;2024-01-11T15:27:13;23.42;;;12.23;;
42124;SDS011;27787;44.594;11.046;2024-01-11T15:29:57;27.55;;;12.15;;
42124;SDS011;27787;44.594;11.046;2024-01-11T15:32:44;26.40;;;12.00;;
42124;SDS011;27787;44.594;11.046;2024-01-11T15:35:29;24.98;;;12.32;;
42124;SDS011;27787;44.594;11.046;2024-01-11T15:38:13;29.52;;;13.63;;
42124;SDS011;27787;44.594;11.046;2024-01-11T15:40:57;30.25;;;13.32;;
42124;SDS011;27787;44.594;11.046;2024-01-11T15:43:42;27.33;;;12.63;;
42124;SDS011;27787;44.594;11.046;2024-01-11T15:46:26;28.67;;;13.65;;
42124;SDS011;27787;44.594;11.046;2024-01-11T15:49:11;27.95;;;13.00;;
42124;SDS011;27787;44.594;11.046;2024-01-11T15:51:55;26.42;;;13.10;;
42124;SDS011;27787;44.594;11.046;2024-01-11T15:54:40;31.15;;;13.70;;
42124;SDS011;27787;44.594;11.046;2024-01-11T15:57:25;30.58;;;14.23;;
42124;SDS011;27787;44.594;11.046;2024-01-11T16:00:09;28.60;;;13.90;;
42124;SDS011;27787;44.594;11.046;2024-01-11T16:02:55;26.35;;;14.00;;
42124;SDS011;27787;44.594;11.046;2024-01-11T16:05:39;32.08;;;14.13;;
42124;SDS011;27787;44.594;11.046;2024-01-11T16:08:24;32.72;;;15.25;;